sensor_id;sensor_type;location;lat;lon;timestamp;temperature;humidity
38118;DHT22;23928;47.562;7.508;2023-05-10T00:01:07;13.30;99.90
38118;DHT22;23928;47.562;7.508;2023-05-10T00:03:33;13.30;99.90
38118;DHT22;23928;47.562;7.508;2023-05-10T00:05:58;13.30;99.90
38118;DHT22;23928;47.562;7.508;2023-05-10T00:08:24;13.20;99.90
38118;DHT22;23928;47.562;7.508;2023-05-10T00:10:49;13.10;99.90
38118;DHT22;23928;47.562;7.508;2023-05-10T00:13:15;13.10;99.90
38118;DHT22;23928;47.562;7.508;2023-05-10T00:15:41;13.20;99.90
38118;DHT22;23928;47.562;7.508;2023-05-10T00:18:07;13.20;99.90
38118;DHT22;23928;47.562;7.508;2023-05-10T00:20:33;13.20;99.90
38118;DHT22;23928;47.562;7.508;2023-05-10T00:22:58;13.20;99.90
38118;DHT22;23928;47.562;7.508;2023-05-10T00:25:24;13.10;99.90
38118;DHT22;23928;47.562;7.508;2023-05-10T00:27:49;13.30;99.90
38118;DHT22;23928;47.562;7.508;2023-05-10T00:30:16;13.20;99.90
38118;DHT22;23928;47.562;7.508;2023-05-10T00:32:41;13.20;99.90
38118;DHT22;23928;47.562;7.508;2023-05-10T00:35:07;13.10;99.90
38118;DHT22;23928;47.562;7.508;2023-05-10T00:37:33;13.10;99.90
38118;DHT22;23928;47.562;7.508;2023-05-10T00:39:59;13.00;99.90
38118;DHT22;23928;47.562;7.508;2023-05-10T00:42:24;12.90;99.90
38118;DHT22;23928;47.562;7.508;2023-05-10T00:44:50;12.90;99.90
38118;DHT22;23928;47.562;7.508;2023-05-10T00:47:16;13.00;99.90
38118;DHT22;23928;47.562;7.508;2023-05-10T00:49:42;12.90;99.90
38118;DHT22;23928;47.562;7.508;2023-05-10T00:52:09;12.80;99.90
38118;DHT22;23928;47.562;7.508;2023-05-10T00:54:35;12.80;99.90
38118;DHT22;23928;47.562;7.508;2023-05-10T00:57:00;12.90;99.90
38118;DHT22;23928;47.562;7.508;2023-05-10T00:59:26;12.90;99.90
38118;DHT22;23928;47.562;7.508;2023-05-10T01:01:52;12.90;99.90
38118;DHT22;23928;47.562;7.508;2023-05-10T01:04:18;12.80;99.90
38118;DHT22;23928;47.562;7.508;2023-05-10T01:06:47;12.90;99.90
38118;DHT22;23928;47.562;7.508;2023-05-10T01:09:12;12.70;99.90
38118;DHT22;23928;47.562;7.508;2023-05-10T01:11:38;12.90;99.90
38118;DHT22;23928;47.562;7.508;2023-05-10T01:14:05;13.00;99.90
38118;DHT22;23928;47.562;7.508;2023-05-10T01:16:37;13.00;99.90
38118;DHT22;23928;47.562;7.508;2023-05-10T01:19:06;12.90;99.90
38118;DHT22;23928;47.562;7.508;2023-05-10T01:24:08;13.00;99.90
38118;DHT22;23928;47.562;7.508;2023-05-10T01:35:06;12.80;99.90
38118;DHT22;23928;47.562;7.508;2023-05-10T01:37:52;13.00;99.90
38118;DHT22;23928;47.562;7.508;2023-05-10T01:43:22;13.10;99.90
38118;DHT22;23928;47.562;7.508;2023-05-10T01:46:07;13.00;99.90
38118;DHT22;23928;47.562;7.508;2023-05-10T01:48:46;13.00;99.90
38118;DHT22;23928;47.562;7.508;2023-05-10T01:51:15;13.10;99.90
38118;DHT22;23928;47.562;7.508;2023-05-10T01:53:44;13.10;99.90
38118;DHT22;23928;47.562;7.508;2023-05-10T01:56:12;13.20;99.90
38118;DHT22;23928;47.562;7.508;2023-05-10T01:58:39;13.20;99.90
38118;DHT22;23928;47.562;7.508;2023-05-10T02:01:06;13.20;99.90
38118;DHT22;23928;47.562;7.508;2023-05-10T02:03:35;13.20;99.90
38118;DHT22;23928;47.562;7.508;2023-05-10T02:06:02;13.20;99.90
38118;DHT22;23928;47.562;7.508;2023-05-10T02:08:29;13.20;99.90
38118;DHT22;23928;47.562;7.508;2023-05-10T02:10:56;13.20;99.90
38118;DHT22;23928;47.562;7.508;2023-05-10T02:13:24;13.10;99.90
38118;DHT22;23928;47.562;7.508;2023-05-10T02:15:51;12.90;99.90
38118;DHT22;23928;47.562;7.508;2023-05-10T02:18:18;12.90;99.90
38118;DHT22;23928;47.562;7.508;2023-05-10T02:20:46;12.90;99.90
38118;DHT22;23928;47.562;7.508;2023-05-10T02:23:12;12.90;99.90
38118;DHT22;23928;47.562;7.508;2023-05-10T02:25:39;13.00;99.90
38118;DHT22;23928;47.562;7.508;2023-05-10T02:28:06;13.00;99.90
38118;DHT22;23928;47.562;7.508;2023-05-10T02:30:33;13.10;99.90
38118;DHT22;23928;47.562;7.508;2023-05-10T02:33:00;13.10;99.90
38118;DHT22;23928;47.562;7.508;2023-05-10T02:35:28;13.20;99.90
38118;DHT22;23928;47.562;7.508;2023-05-10T02:37:54;13.20;99.90
38118;DHT22;23928;47.562;7.508;2023-05-10T02:40:21;13.10;99.90
38118;DHT22;23928;47.562;7.508;2023-05-10T02:42:48;13.10;99.90
38118;DHT22;23928;47.562;7.508;2023-05-10T02:45:19;13.00;99.90
38118;DHT22;23928;47.562;7.508;2023-05-10T02:47:46;13.00;99.90
38118;DHT22;23928;47.562;7.508;2023-05-10T02:50:12;12.90;99.90
38118;DHT22;23928;47.562;7.508;2023-05-10T02:52:46;13.00;99.90
38118;DHT22;23928;47.562;7.508;2023-05-10T02:55:15;12.90;99.90
38118;DHT22;23928;47.562;7.508;2023-05-10T02:57:48;13.10;99.90
38118;DHT22;23928;47.562;7.508;2023-05-10T03:00:15;13.10;99.90
38118;DHT22;23928;47.562;7.508;2023-05-10T03:02:41;13.00;99.90
38118;DHT22;23928;47.562;7.508;2023-05-10T03:05:07;13.10;99.90
38118;DHT22;23928;47.562;7.508;2023-05-10T03:07:33;13.00;99.90
38118;DHT22;23928;47.562;7.508;2023-05-10T03:09:59;12.80;99.90
38118;DHT22;23928;47.562;7.508;2023-05-10T03:18:10;12.80;99.90
38118;DHT22;23928;47.562;7.508;2023-05-10T03:20:42;12.80;99.90
38118;DHT22;23928;47.562;7.508;2023-05-10T03:25:43;12.70;99.90
38118;DHT22;23928;47.562;7.508;2023-05-10T03:28:09;12.70;99.90
38118;DHT22;23928;47.562;7.508;2023-05-10T03:30:35;12.80;99.90
38118;DHT22;23928;47.562;7.508;2023-05-10T03:33:07;12.90;99.90
38118;DHT22;23928;47.562;7.508;2023-05-10T03:35:33;13.00;99.90
38118;DHT22;23928;47.562;7.508;2023-05-10T03:37:59;12.90;99.90
38118;DHT22;23928;47.562;7.508;2023-05-10T03:40:26;12.80;99.90
38118;DHT22;23928;47.562;7.508;2023-05-10T03:42:54;12.80;99.90
38118;DHT22;23928;47.562;7.508;2023-05-10T03:45:20;12.80;99.90
38118;DHT22;23928;47.562;7.508;2023-05-10T03:47:45;12.80;99.90
38118;DHT22;23928;47.562;7.508;2023-05-10T03:50:11;12.90;99.90
38118;DHT22;23928;47.562;7.508;2023-05-10T03:52:37;12.80;99.90
38118;DHT22;23928;47.562;7.508;2023-05-10T03:55:04;12.60;99.90
38118;DHT22;23928;47.562;7.508;2023-05-10T03:57:30;12.60;99.90
38118;DHT22;23928;47.562;7.508;2023-05-10T03:59:56;12.60;99.90
38118;DHT22;23928;47.562;7.508;2023-05-10T04:02:21;12.60;99.90
38118;DHT22;23928;47.562;7.508;2023-05-10T04:04:47;12.50;99.90
38118;DHT22;23928;47.562;7.508;2023-05-10T04:07:13;12.40;99.90
38118;DHT22;23928;47.562;7.508;2023-05-10T04:09:39;12.40;99.90
38118;DHT22;23928;47.562;7.508;2023-05-10T04:12:05;12.40;99.90
38118;DHT22;23928;47.562;7.508;2023-05-10T04:14:30;12.40;99.90
38118;DHT22;23928;47.562;7.508;2023-05-10T04:16:56;12.40;99.90
38118;DHT22;23928;47.562;7.508;2023-05-10T04:19:21;12.40;99.90
38118;DHT22;23928;47.562;7.508;2023-05-10T04:21:48;12.50;99.90
38118;DHT22;23928;47.562;7.508;2023-05-10T04:24:13;12.40;99.90
38118;DHT22;23928;47.562;7.508;2023-05-10T04:26:39;12.40;99.90
38118;DHT22;23928;47.562;7.508;2023-05-10T04:29:04;12.50;99.90
38118;DHT22;23928;47.562;7.508;2023-05-10T04:31:30;12.40;99.90
38118;DHT22;23928;47.562;7.508;2023-05-10T04:33:56;12.40;99.90
38118;DHT22;23928;47.562;7.508;2023-05-10T04:36:21;12.60;99.90
38118;DHT22;23928;47.562;7.508;2023-05-10T04:38:47;12.50;99.90
38118;DHT22;23928;47.562;7.508;2023-05-10T04:41:12;12.30;99.90
38118;DHT22;23928;47.562;7.508;2023-05-10T04:43:38;12.40;99.90
38118;DHT22;23928;47.562;7.508;2023-05-10T04:46:04;12.60;99.90
38118;DHT22;23928;47.562;7.508;2023-05-10T04:48:30;12.50;99.90
38118;DHT22;23928;47.562;7.508;2023-05-10T04:50:56;12.50;99.90
38118;DHT22;23928;47.562;7.508;2023-05-10T04:53:22;12.50;99.90
38118;DHT22;23928;47.562;7.508;2023-05-10T04:55:47;12.50;99.90
38118;DHT22;23928;47.562;7.508;2023-05-10T04:58:13;12.60;99.90
38118;DHT22;23928;47.562;7.508;2023-05-10T05:00:39;12.50;99.90
38118;DHT22;23928;47.562;7.508;2023-05-10T05:03:04;12.50;99.90
38118;DHT22;23928;47.562;7.508;2023-05-10T05:05:30;12.50;99.90
38118;DHT22;23928;47.562;7.508;2023-05-10T05:07:56;12.40;99.90
38118;DHT22;23928;47.562;7.508;2023-05-10T05:10:22;12.50;99.90
38118;DHT22;23928;47.562;7.508;2023-05-10T05:12:47;12.50;99.90
38118;DHT22;23928;47.562;7.508;2023-05-10T05:15:13;12.50;99.90
38118;DHT22;23928;47.562;7.508;2023-05-10T05:17:38;12.60;99.90
38118;DHT22;23928;47.562;7.508;2023-05-10T05:20:04;12.50;99.90
38118;DHT22;23928;47.562;7.508;2023-05-10T05:22:30;12.40;99.90
38118;DHT22;23928;47.562;7.508;2023-05-10T05:24:56;12.60;99.90
38118;DHT22;23928;47.562;7.508;2023-05-10T05:27:24;12.60;99.90
38118;DHT22;23928;47.562;7.508;2023-05-10T05:29:56;12.50;99.90
38118;DHT22;23928;47.562;7.508;2023-05-10T05:32:22;12.50;99.90
38118;DHT22;23928;47.562;7.508;2023-05-10T05:34:48;12.50;99.90
38118;DHT22;23928;47.562;7.508;2023-05-10T05:37:19;12.30;99.90
38118;DHT22;23928;47.562;7.508;2023-05-10T05:39:46;12.40;99.90
38118;DHT22;23928;47.562;7.508;2023-05-10T05:42:12;12.40;99.90
38118;DHT22;23928;47.562;7.508;2023-05-10T05:44:38;12.40;99.90
38118;DHT22;23928;47.562;7.508;2023-05-10T05:47:05;12.50;99.90
38118;DHT22;23928;47.562;7.508;2023-05-10T05:49:31;12.60;99.90
38118;DHT22;23928;47.562;7.508;2023-05-10T05:52:03;12.60;99.90
38118;DHT22;23928;47.562;7.508;2023-05-10T05:54:29;12.60;99.90
38118;DHT22;23928;47.562;7.508;2023-05-10T05:56:58;12.80;99.90
38118;DHT22;23928;47.562;7.508;2023-05-10T05:59:24;12.80;99.90
38118;DHT22;23928;47.562;7.508;2023-05-10T06:01:50;12.60;99.90
38118;DHT22;23928;47.562;7.508;2023-05-10T06:04:16;12.60;99.90
38118;DHT22;23928;47.562;7.508;2023-05-10T06:06:42;12.50;99.90
38118;DHT22;23928;47.562;7.508;2023-05-10T06:09:08;12.60;99.90
38118;DHT22;23928;47.562;7.508;2023-05-10T06:11:34;12.80;99.90
38118;DHT22;23928;47.562;7.508;2023-05-10T06:14:01;12.70;99.90
38118;DHT22;23928;47.562;7.508;2023-05-10T06:16:27;12.70;99.90
38118;DHT22;23928;47.562;7.508;2023-05-10T06:18:52;12.70;99.90
38118;DHT22;23928;47.562;7.508;2023-05-10T06:21:18;12.80;99.90
38118;DHT22;23928;47.562;7.508;2023-05-10T06:23:43;13.10;99.90
38118;DHT22;23928;47.562;7.508;2023-05-10T06:26:09;13.10;99.90
38118;DHT22;23928;47.562;7.508;2023-05-10T06:28:35;13.10;99.90
38118;DHT22;23928;47.562;7.508;2023-05-10T06:31:03;12.90;99.90
38118;DHT22;23928;47.562;7.508;2023-05-10T06:33:29;13.10;99.90
38118;DHT22;23928;47.562;7.508;2023-05-10T06:35:55;12.90;99.90
38118;DHT22;23928;47.562;7.508;2023-05-10T06:38:21;12.90;99.90
38118;DHT22;23928;47.562;7.508;2023-05-10T06:40:46;12.80;99.90
38118;DHT22;23928;47.562;7.508;2023-05-10T06:43:12;12.90;99.90
38118;DHT22;23928;47.562;7.508;2023-05-10T06:45:37;13.00;99.90
38118;DHT22;23928;47.562;7.508;2023-05-10T06:48:03;13.10;99.90
38118;DHT22;23928;47.562;7.508;2023-05-10T06:50:29;13.30;99.90
38118;DHT22;23928;47.562;7.508;2023-05-10T06:52:54;13.00;99.90
38118;DHT22;23928;47.562;7.508;2023-05-10T06:55:21;13.00;99.90
38118;DHT22;23928;47.562;7.508;2023-05-10T06:57:46;12.90;99.90
38118;DHT22;23928;47.562;7.508;2023-05-10T07:00:13;13.10;99.90
38118;DHT22;23928;47.562;7.508;2023-05-10T07:02:39;13.30;99.90
38118;DHT22;23928;47.562;7.508;2023-05-10T07:05:05;13.40;99.90
38118;DHT22;23928;47.562;7.508;2023-05-10T07:07:31;13.20;99.90
38118;DHT22;23928;47.562;7.508;2023-05-10T07:09:57;13.10;99.90
38118;DHT22;23928;47.562;7.508;2023-05-10T07:12:23;13.50;99.90
38118;DHT22;23928;47.562;7.508;2023-05-10T07:14:49;13.60;99.90
38118;DHT22;23928;47.562;7.508;2023-05-10T07:17:15;13.50;99.90
38118;DHT22;23928;47.562;7.508;2023-05-10T07:19:40;13.60;99.90
38118;DHT22;23928;47.562;7.508;2023-05-10T07:22:06;13.70;99.90
38118;DHT22;23928;47.562;7.508;2023-05-10T07:24:32;13.70;99.90
38118;DHT22;23928;47.562;7.508;2023-05-10T07:26:58;13.90;99.90
38118;DHT22;23928;47.562;7.508;2023-05-10T07:29:24;13.60;99.90
38118;DHT22;23928;47.562;7.508;2023-05-10T07:31:50;13.40;99.90
38118;DHT22;23928;47.562;7.508;2023-05-10T07:34:15;13.40;99.90
38118;DHT22;23928;47.562;7.508;2023-05-10T07:36:41;13.20;99.90
38118;DHT22;23928;47.562;7.508;2023-05-10T07:39:07;13.60;99.90
38118;DHT22;23928;47.562;7.508;2023-05-10T07:41:32;13.30;99.90
38118;DHT22;23928;47.562;7.508;2023-05-10T07:43:58;13.90;99.90
38118;DHT22;23928;47.562;7.508;2023-05-10T07:46:24;13.80;99.90
38118;DHT22;23928;47.562;7.508;2023-05-10T07:48:49;13.90;99.90
38118;DHT22;23928;47.562;7.508;2023-05-10T07:51:15;13.70;99.90
38118;DHT22;23928;47.562;7.508;2023-05-10T07:53:40;13.80;99.90
38118;DHT22;23928;47.562;7.508;2023-05-10T07:56:27;14.10;99.90
38118;DHT22;23928;47.562;7.508;2023-05-10T07:58:55;14.20;99.90
38118;DHT22;23928;47.562;7.508;2023-05-10T08:01:21;14.00;99.90
38118;DHT22;23928;47.562;7.508;2023-05-10T08:03:47;13.30;99.90
38118;DHT22;23928;47.562;7.508;2023-05-10T08:06:14;13.30;99.90
38118;DHT22;23928;47.562;7.508;2023-05-10T08:08:41;13.30;99.90
38118;DHT22;23928;47.562;7.508;2023-05-10T08:11:06;13.60;99.90
38118;DHT22;23928;47.562;7.508;2023-05-10T08:13:32;14.00;99.90
38118;DHT22;23928;47.562;7.508;2023-05-10T08:15:58;14.00;99.90
38118;DHT22;23928;47.562;7.508;2023-05-10T08:18:23;14.10;99.90
38118;DHT22;23928;47.562;7.508;2023-05-10T08:20:49;14.10;99.90
38118;DHT22;23928;47.562;7.508;2023-05-10T08:23:14;14.10;99.90
38118;DHT22;23928;47.562;7.508;2023-05-10T08:25:40;14.20;99.90
38118;DHT22;23928;47.562;7.508;2023-05-10T08:28:06;14.20;99.90
38118;DHT22;23928;47.562;7.508;2023-05-10T08:30:32;14.50;99.90
38118;DHT22;23928;47.562;7.508;2023-05-10T08:32:57;14.70;99.90
38118;DHT22;23928;47.562;7.508;2023-05-10T08:35:23;14.80;99.90
38118;DHT22;23928;47.562;7.508;2023-05-10T08:37:50;14.50;99.90
38118;DHT22;23928;47.562;7.508;2023-05-10T08:40:15;14.10;99.90
38118;DHT22;23928;47.562;7.508;2023-05-10T08:42:47;14.20;99.90
38118;DHT22;23928;47.562;7.508;2023-05-10T08:45:16;14.10;99.90
38118;DHT22;23928;47.562;7.508;2023-05-10T08:47:43;14.10;99.90
38118;DHT22;23928;47.562;7.508;2023-05-10T08:50:10;13.90;99.90
38118;DHT22;23928;47.562;7.508;2023-05-10T08:52:38;14.40;99.90
38118;DHT22;23928;47.562;7.508;2023-05-10T08:55:05;14.50;99.90
38118;DHT22;23928;47.562;7.508;2023-05-10T08:57:31;14.90;99.90
38118;DHT22;23928;47.562;7.508;2023-05-10T08:59:57;14.70;99.90
38118;DHT22;23928;47.562;7.508;2023-05-10T09:02:23;14.40;99.90
38118;DHT22;23928;47.562;7.508;2023-05-10T09:04:49;14.20;99.90
38118;DHT22;23928;47.562;7.508;2023-05-10T09:07:15;13.80;99.90
38118;DHT22;23928;47.562;7.508;2023-05-10T09:09:41;14.20;99.90
38118;DHT22;23928;47.562;7.508;2023-05-10T09:12:07;14.80;99.90
38118;DHT22;23928;47.562;7.508;2023-05-10T09:14:36;14.50;99.90
38118;DHT22;23928;47.562;7.508;2023-05-10T09:17:03;14.30;99.90
38118;DHT22;23928;47.562;7.508;2023-05-10T09:19:29;14.10;99.90
38118;DHT22;23928;47.562;7.508;2023-05-10T09:21:55;13.70;99.90
38118;DHT22;23928;47.562;7.508;2023-05-10T09:24:25;14.00;99.90
38118;DHT22;23928;47.562;7.508;2023-05-10T09:26:51;14.60;99.90
38118;DHT22;23928;47.562;7.508;2023-05-10T09:29:17;15.40;99.90
38118;DHT22;23928;47.562;7.508;2023-05-10T09:31:49;15.60;99.90
38118;DHT22;23928;47.562;7.508;2023-05-10T09:34:30;15.40;99.90
38118;DHT22;23928;47.562;7.508;2023-05-10T09:37:00;15.40;99.90
38118;DHT22;23928;47.562;7.508;2023-05-10T09:39:31;15.50;99.90
38118;DHT22;23928;47.562;7.508;2023-05-10T09:41:58;15.70;99.90
38118;DHT22;23928;47.562;7.508;2023-05-10T09:44:25;15.20;99.90
38118;DHT22;23928;47.562;7.508;2023-05-10T09:46:51;15.50;99.90
38118;DHT22;23928;47.562;7.508;2023-05-10T09:49:18;15.90;99.90
38118;DHT22;23928;47.562;7.508;2023-05-10T09:51:45;16.10;99.90
38118;DHT22;23928;47.562;7.508;2023-05-10T09:54:14;15.30;99.90
38118;DHT22;23928;47.562;7.508;2023-05-10T09:56:41;15.30;99.90
38118;DHT22;23928;47.562;7.508;2023-05-10T09:59:10;15.00;99.90
38118;DHT22;23928;47.562;7.508;2023-05-10T10:01:36;15.30;99.90
38118;DHT22;23928;47.562;7.508;2023-05-10T10:04:04;15.40;99.90
38118;DHT22;23928;47.562;7.508;2023-05-10T10:06:38;15.80;99.90
38118;DHT22;23928;47.562;7.508;2023-05-10T10:09:04;15.80;99.90
38118;DHT22;23928;47.562;7.508;2023-05-10T10:11:30;15.90;99.90
38118;DHT22;23928;47.562;7.508;2023-05-10T10:13:56;15.90;99.90
38118;DHT22;23928;47.562;7.508;2023-05-10T10:16:21;16.20;99.90
38118;DHT22;23928;47.562;7.508;2023-05-10T10:18:48;16.40;99.90
38118;DHT22;23928;47.562;7.508;2023-05-10T10:21:14;16.40;99.90
38118;DHT22;23928;47.562;7.508;2023-05-10T10:23:40;16.30;99.90
38118;DHT22;23928;47.562;7.508;2023-05-10T10:26:06;15.70;99.90
38118;DHT22;23928;47.562;7.508;2023-05-10T10:31:40;16.50;99.90
38118;DHT22;23928;47.562;7.508;2023-05-10T10:34:09;17.00;99.90
38118;DHT22;23928;47.562;7.508;2023-05-10T10:36:47;17.40;99.90
38118;DHT22;23928;47.562;7.508;2023-05-10T10:39:14;16.90;99.90
38118;DHT22;23928;47.562;7.508;2023-05-10T10:41:51;16.20;99.90
38118;DHT22;23928;47.562;7.508;2023-05-10T10:52:25;16.10;99.90
38118;DHT22;23928;47.562;7.508;2023-05-10T10:55:06;16.80;99.90
38118;DHT22;23928;47.562;7.508;2023-05-10T10:57:49;17.20;99.90
38118;DHT22;23928;47.562;7.508;2023-05-10T11:00:29;17.60;99.90
38118;DHT22;23928;47.562;7.508;2023-05-10T11:03:04;17.70;99.90
38118;DHT22;23928;47.562;7.508;2023-05-10T11:08:08;17.30;99.90
38118;DHT22;23928;47.562;7.508;2023-05-10T11:10:34;17.20;99.90
38118;DHT22;23928;47.562;7.508;2023-05-10T11:13:08;17.60;99.90
38118;DHT22;23928;47.562;7.508;2023-05-10T11:15:39;17.50;99.90
38118;DHT22;23928;47.562;7.508;2023-05-10T11:18:23;17.30;99.90
38118;DHT22;23928;47.562;7.508;2023-05-10T11:20:57;16.60;99.90
38118;DHT22;23928;47.562;7.508;2023-05-10T11:23:28;16.20;99.90
38118;DHT22;23928;47.562;7.508;2023-05-10T11:25:54;16.10;99.90
38118;DHT22;23928;47.562;7.508;2023-05-10T11:28:20;15.70;99.90
38118;DHT22;23928;47.562;7.508;2023-05-10T11:30:45;15.80;99.90
38118;DHT22;23928;47.562;7.508;2023-05-10T11:33:16;16.30;99.90
38118;DHT22;23928;47.562;7.508;2023-05-10T11:35:42;16.10;99.90
38118;DHT22;23928;47.562;7.508;2023-05-10T11:38:12;16.20;99.90
38118;DHT22;23928;47.562;7.508;2023-05-10T11:40:39;16.10;99.90
38118;DHT22;23928;47.562;7.508;2023-05-10T11:43:05;16.00;99.90
38118;DHT22;23928;47.562;7.508;2023-05-10T11:45:34;16.00;99.90
38118;DHT22;23928;47.562;7.508;2023-05-10T11:48:00;15.80;99.90
38118;DHT22;23928;47.562;7.508;2023-05-10T11:50:26;15.90;99.90
38118;DHT22;23928;47.562;7.508;2023-05-10T11:52:53;16.20;99.90
38118;DHT22;23928;47.562;7.508;2023-05-10T11:55:19;16.40;99.90
38118;DHT22;23928;47.562;7.508;2023-05-10T11:57:45;15.90;99.90
38118;DHT22;23928;47.562;7.508;2023-05-10T12:00:12;15.50;99.90
38118;DHT22;23928;47.562;7.508;2023-05-10T12:02:38;15.30;99.90
38118;DHT22;23928;47.562;7.508;2023-05-10T12:05:04;15.30;99.90
38118;DHT22;23928;47.562;7.508;2023-05-10T12:07:31;15.40;99.90
38118;DHT22;23928;47.562;7.508;2023-05-10T12:12:43;16.10;99.90
38118;DHT22;23928;47.562;7.508;2023-05-10T12:15:22;15.80;99.90
38118;DHT22;23928;47.562;7.508;2023-05-10T12:17:49;16.40;99.90
38118;DHT22;23928;47.562;7.508;2023-05-10T12:20:23;16.50;99.90
38118;DHT22;23928;47.562;7.508;2023-05-10T12:22:58;16.50;99.90
38118;DHT22;23928;47.562;7.508;2023-05-10T12:25:30;16.40;99.90
38118;DHT22;23928;47.562;7.508;2023-05-10T12:27:57;16.20;99.90
38118;DHT22;23928;47.562;7.508;2023-05-10T12:30:31;16.60;99.90
38118;DHT22;23928;47.562;7.508;2023-05-10T12:33:13;17.30;99.90
38118;DHT22;23928;47.562;7.508;2023-05-10T12:35:54;17.50;99.90
38118;DHT22;23928;47.562;7.508;2023-05-10T12:38:41;17.50;99.90
38118;DHT22;23928;47.562;7.508;2023-05-10T12:41:14;17.10;99.90
38118;DHT22;23928;47.562;7.508;2023-05-10T12:43:40;16.90;99.90
38118;DHT22;23928;47.562;7.508;2023-05-10T12:46:13;16.90;99.90
38118;DHT22;23928;47.562;7.508;2023-05-10T12:48:40;16.60;99.90
38118;DHT22;23928;47.562;7.508;2023-05-10T12:51:06;16.40;99.90
38118;DHT22;23928;47.562;7.508;2023-05-10T12:53:37;16.70;99.90
38118;DHT22;23928;47.562;7.508;2023-05-10T12:56:03;17.00;99.90
38118;DHT22;23928;47.562;7.508;2023-05-10T12:58:29;17.20;99.90
38118;DHT22;23928;47.562;7.508;2023-05-10T13:00:54;17.30;99.90
38118;DHT22;23928;47.562;7.508;2023-05-10T13:03:22;17.70;99.90
38118;DHT22;23928;47.562;7.508;2023-05-10T13:05:47;17.50;99.90
38118;DHT22;23928;47.562;7.508;2023-05-10T13:08:13;17.40;99.90
38118;DHT22;23928;47.562;7.508;2023-05-10T13:10:39;16.90;99.90
38118;DHT22;23928;47.562;7.508;2023-05-10T13:13:04;16.70;99.90
38118;DHT22;23928;47.562;7.508;2023-05-10T13:15:30;16.90;99.90
38118;DHT22;23928;47.562;7.508;2023-05-10T13:17:56;16.40;99.90
38118;DHT22;23928;47.562;7.508;2023-05-10T13:20:21;16.60;99.90
38118;DHT22;23928;47.562;7.508;2023-05-10T13:22:47;16.80;99.90
38118;DHT22;23928;47.562;7.508;2023-05-10T13:25:13;16.40;99.90
38118;DHT22;23928;47.562;7.508;2023-05-10T13:27:41;17.10;99.90
38118;DHT22;23928;47.562;7.508;2023-05-10T13:30:08;17.40;99.90
38118;DHT22;23928;47.562;7.508;2023-05-10T13:32:34;17.80;99.90
38118;DHT22;23928;47.562;7.508;2023-05-10T13:35:01;17.10;99.90
38118;DHT22;23928;47.562;7.508;2023-05-10T13:37:28;17.20;99.90
38118;DHT22;23928;47.562;7.508;2023-05-10T13:39:54;17.10;99.90
38118;DHT22;23928;47.562;7.508;2023-05-10T13:42:22;17.70;99.90
38118;DHT22;23928;47.562;7.508;2023-05-10T13:44:48;17.30;99.90
38118;DHT22;23928;47.562;7.508;2023-05-10T13:47:13;16.70;99.90
38118;DHT22;23928;47.562;7.508;2023-05-10T13:49:39;16.50;99.90
38118;DHT22;23928;47.562;7.508;2023-05-10T13:52:05;16.40;99.90
38118;DHT22;23928;47.562;7.508;2023-05-10T13:54:35;16.80;99.90
38118;DHT22;23928;47.562;7.508;2023-05-10T13:57:01;17.40;99.90
38118;DHT22;23928;47.562;7.508;2023-05-10T13:59:26;18.20;99.90
38118;DHT22;23928;47.562;7.508;2023-05-10T14:01:52;19.00;99.90
38118;DHT22;23928;47.562;7.508;2023-05-10T14:04:18;19.30;99.90
38118;DHT22;23928;47.562;7.508;2023-05-10T14:06:43;19.00;99.90
38118;DHT22;23928;47.562;7.508;2023-05-10T14:09:09;18.20;99.90
38118;DHT22;23928;47.562;7.508;2023-05-10T14:11:35;18.80;99.90
38118;DHT22;23928;47.562;7.508;2023-05-10T14:14:00;18.70;99.90
38118;DHT22;23928;47.562;7.508;2023-05-10T14:16:26;18.70;99.90
38118;DHT22;23928;47.562;7.508;2023-05-10T14:18:52;18.70;99.90
38118;DHT22;23928;47.562;7.508;2023-05-10T14:21:18;19.00;99.90
38118;DHT22;23928;47.562;7.508;2023-05-10T14:23:43;18.90;99.90
38118;DHT22;23928;47.562;7.508;2023-05-10T14:26:09;19.20;99.90
38118;DHT22;23928;47.562;7.508;2023-05-10T14:28:34;18.90;99.90
38118;DHT22;23928;47.562;7.508;2023-05-10T14:31:00;17.90;99.90
38118;DHT22;23928;47.562;7.508;2023-05-10T14:33:26;18.40;99.90
38118;DHT22;23928;47.562;7.508;2023-05-10T14:35:51;18.20;99.90
38118;DHT22;23928;47.562;7.508;2023-05-10T14:38:17;18.60;99.90
38118;DHT22;23928;47.562;7.508;2023-05-10T14:40:43;17.80;99.90
38118;DHT22;23928;47.562;7.508;2023-05-10T14:43:09;18.40;99.90
38118;DHT22;23928;47.562;7.508;2023-05-10T14:45:34;18.60;99.90
38118;DHT22;23928;47.562;7.508;2023-05-10T14:48:00;18.10;99.90
38118;DHT22;23928;47.562;7.508;2023-05-10T14:50:26;17.90;99.90
38118;DHT22;23928;47.562;7.508;2023-05-10T14:52:52;18.70;99.90
38118;DHT22;23928;47.562;7.508;2023-05-10T14:55:17;18.90;99.90
38118;DHT22;23928;47.562;7.508;2023-05-10T14:57:43;18.70;99.90
38118;DHT22;23928;47.562;7.508;2023-05-10T15:00:09;17.80;99.90
38118;DHT22;23928;47.562;7.508;2023-05-10T15:02:35;16.80;99.90
38118;DHT22;23928;47.562;7.508;2023-05-10T15:05:01;16.70;99.90
38118;DHT22;23928;47.562;7.508;2023-05-10T15:07:27;17.10;99.90
38118;DHT22;23928;47.562;7.508;2023-05-10T15:09:53;16.80;99.90
38118;DHT22;23928;47.562;7.508;2023-05-10T15:12:19;17.30;99.90
38118;DHT22;23928;47.562;7.508;2023-05-10T15:14:45;18.20;99.90
38118;DHT22;23928;47.562;7.508;2023-05-10T15:17:11;18.90;99.90
38118;DHT22;23928;47.562;7.508;2023-05-10T15:19:37;18.30;99.90
38118;DHT22;23928;47.562;7.508;2023-05-10T15:22:04;17.80;99.90
38118;DHT22;23928;47.562;7.508;2023-05-10T15:24:30;17.50;99.90
38118;DHT22;23928;47.562;7.508;2023-05-10T15:26:56;17.30;99.90
38118;DHT22;23928;47.562;7.508;2023-05-10T15:29:21;16.90;99.90
38118;DHT22;23928;47.562;7.508;2023-05-10T15:31:48;16.90;99.90
38118;DHT22;23928;47.562;7.508;2023-05-10T15:34:14;16.80;99.90
38118;DHT22;23928;47.562;7.508;2023-05-10T15:36:40;16.80;99.90
38118;DHT22;23928;47.562;7.508;2023-05-10T15:39:05;17.00;99.90
38118;DHT22;23928;47.562;7.508;2023-05-10T15:41:31;16.60;99.90
38118;DHT22;23928;47.562;7.508;2023-05-10T15:43:57;16.60;99.90
38118;DHT22;23928;47.562;7.508;2023-05-10T15:46:25;17.20;99.90
38118;DHT22;23928;47.562;7.508;2023-05-10T15:48:51;18.60;99.90
38118;DHT22;23928;47.562;7.508;2023-05-10T15:51:16;18.80;99.90
38118;DHT22;23928;47.562;7.508;2023-05-10T15:53:42;18.60;99.90
38118;DHT22;23928;47.562;7.508;2023-05-10T15:56:08;18.50;99.90
38118;DHT22;23928;47.562;7.508;2023-05-10T15:58:34;17.70;99.90
38118;DHT22;23928;47.562;7.508;2023-05-10T16:00:59;17.70;99.90
38118;DHT22;23928;47.562;7.508;2023-05-10T16:03:25;17.40;99.90
38118;DHT22;23928;47.562;7.508;2023-05-10T16:05:50;18.00;99.90
38118;DHT22;23928;47.562;7.508;2023-05-10T16:08:16;17.90;99.90